Edmond, Kansas
Current Conditions -  °F | °C
As of 12:53 AM on Thursday 18 Dec 2014 (Local Time) from KHLC Reporting Station
Haze Haze  
Wind Chill: 19°   Ceiling: 300
Heat Index: 26°   Visibility: 5mi
Dew Point: 24°   Wind: 6mph
Humidity: 92%   Direction: 70°ENE
Pressure: 30.14"   Gusts: NA
Location:  39.68°N, 99.7571°W
Report Text: KHLC 180653Z AUTO 07005KT 5SM BR OVC003 M03/M04 A3014 RMK AO2 FZRAE0557 SLP230 P0000 I1001 T10331044
Loading
Personal Weather Stations






























Interactive Weather Map New forecast layout! Learn more

10-Day Weather Forecast

Advertisements
Track Severe Weather on mobile